Strona główna
METAR-TAF:

METAR-TAF

Lotnisko :

Port lotniczy Rabat-Sala

Rabat, Maroko

Szerokość geograficzna: 34-03N, Długość geograficzna: 006-46W, wysokość: 84 m

Aktualna obserwacja pogody

Raport powstał 44 minut temu, godzina 06:00 UTC
Cisza
Temperatura
Ciśnienie 0 hPa
Widzialność: 5000 m
Przerywane chmury na wysokości 1300 ft

METAR: GMME 210600Z 00000KT 5000 BKN013 Q0000 NOSIG

czas: 07:44 (06:44 UTC)

Prognoza

Raport powstał 1 godzina i 44 minut temu, godzina 05:00 UTC
Prognoza ważna od 21 godzina 06 UTC do 22 godzina 12 UTC
Wiatr 10 kt od północny zachód
Widzialność: 6000 m
Rozproszone chmury na wysokości 2000 ft
Przejściowo
od 21 godzina 22 UTC do 22 godzina 06 UTC
Wiatr 6 kt od południowy zachód
Rozproszone chmury na wysokości 1300 ft
Przerywane chmury na wysokości 1500 ft

TAF: GMME 210500Z 2106/2212 32010KT 6000 SCT020 TEMPO 2122/2206 22006KT SCT013 BKN015

Obserwacja i prognoza pogody dla ponad 4000 lotnisk (raport METAR i TAF).

Dostępne stacje oznaczono żółtymi i czerwonymi punktami na mapie.

Najedź kursorem aby zobaczyć nazwę stacji.

Kliknij aby zobaczyć obserwacje i prognozy pogody.

Aby zmienić mapę: kliknij na zielony przycisk z czarnym krzyżykiem, aby powiększyć; na zielony przycisk z myślnikiem, aby pomniejszyć; na zielone strzałki, aby przejść do map sąsiednich.


METAR-TAF: